createdAt,value
2019-03-22T00:00:36.448Z,12.20
2019-03-22T00:03:04.712Z,11.80
2019-03-22T00:05:32.978Z,11.53
2019-03-22T00:08:01.200Z,11.43
2019-03-22T00:10:29.415Z,13.20
2019-03-22T00:12:57.803Z,13.57
2019-03-22T00:15:26.328Z,13.53
2019-03-22T00:17:54.590Z,12.73
2019-03-22T00:20:22.925Z,12.37
2019-03-22T00:22:51.213Z,12.60
2019-03-22T00:25:19.501Z,13.57
2019-03-22T00:27:48.017Z,13.33
2019-03-22T00:30:16.333Z,12.50
2019-03-22T00:32:44.530Z,12.00
2019-03-22T00:35:12.800Z,12.57
2019-03-22T00:37:40.999Z,13.40
2019-03-22T00:40:09.451Z,12.67
2019-03-22T00:42:37.646Z,13.33
2019-03-22T00:45:06.208Z,14.50
2019-03-22T00:47:34.369Z,13.67
2019-03-22T00:50:02.579Z,13.80
2019-03-22T00:52:30.847Z,14.47
2019-03-22T00:54:59.135Z,13.90
2019-03-22T00:57:28.675Z,13.80
2019-03-22T00:59:57.196Z,12.70
2019-03-22T01:02:25.493Z,12.80
2019-03-22T01:04:53.667Z,14.17
2019-03-22T01:07:21.989Z,13.40
2019-03-22T01:09:50.201Z,13.60
2019-03-22T01:12:18.485Z,14.00
2019-03-22T01:14:46.757Z,16.87
2019-03-22T01:17:14.941Z,15.50
2019-03-22T01:19:43.240Z,15.90
2019-03-22T01:22:11.481Z,13.50
2019-03-22T01:24:39.760Z,14.50
2019-03-22T01:27:08.029Z,13.20
2019-03-22T01:29:36.202Z,14.37
2019-03-22T01:32:04.505Z,14.20
2019-03-22T01:34:32.757Z,13.67
2019-03-22T01:37:00.938Z,12.00
2019-03-22T01:39:29.199Z,13.27
2019-03-22T01:41:57.506Z,13.87
2019-03-22T01:44:25.789Z,13.27
2019-03-22T01:46:54.070Z,13.77
2019-03-22T01:49:22.320Z,12.80
2019-03-22T01:51:50.622Z,12.87
2019-03-22T01:54:18.859Z,13.40
2019-03-22T01:56:47.159Z,13.33
2019-03-22T01:59:15.446Z,12.87
2019-03-22T02:01:43.697Z,12.40
2019-03-22T02:04:12.005Z,10.80
2019-03-22T02:06:40.275Z,11.40
2019-03-22T02:09:08.577Z,11.83
2019-03-22T02:11:36.934Z,12.63
2019-03-22T02:14:05.206Z,14.23
2019-03-22T02:16:33.473Z,13.60
2019-03-22T02:19:01.734Z,12.00
2019-03-22T02:21:30.038Z,12.67
2019-03-22T02:23:58.299Z,11.07
2019-03-22T02:26:26.550Z,11.70
2019-03-22T02:28:54.857Z,11.50
2019-03-22T02:31:23.195Z,11.77
2019-03-22T02:33:51.490Z,12.23
2019-03-22T02:36:19.728Z,12.67
2019-03-22T02:38:48.054Z,14.40
2019-03-22T02:41:16.320Z,13.50
2019-03-22T02:43:44.523Z,12.13
2019-03-22T02:46:12.814Z,12.60
2019-03-22T02:48:41.163Z,13.40
2019-03-22T02:51:09.433Z,13.00
2019-03-22T02:53:37.703Z,12.73
2019-03-22T02:56:06.154Z,13.80
2019-03-22T02:58:34.460Z,13.07
2019-03-22T03:01:02.761Z,13.20
2019-03-22T03:03:31.093Z,12.87
2019-03-22T03:05:59.327Z,12.67
2019-03-22T03:08:27.614Z,11.97
2019-03-22T03:10:55.949Z,12.80
2019-03-22T03:13:24.245Z,13.70
2019-03-22T03:15:52.497Z,12.90
2019-03-22T03:18:20.691Z,15.10
2019-03-22T03:20:48.982Z,14.03
2019-03-22T03:23:17.218Z,13.88
2019-03-22T03:25:45.520Z,11.80
2019-03-22T03:28:13.779Z,12.07
2019-03-22T03:30:42.066Z,11.67
2019-03-22T03:33:10.332Z,12.00
2019-03-22T03:35:38.649Z,11.63
2019-03-22T03:38:07.055Z,11.70
2019-03-22T03:40:35.461Z,11.70
2019-03-22T03:43:03.765Z,12.87
2019-03-22T03:45:35.454Z,13.37
2019-03-22T03:48:04.425Z,12.67
2019-03-22T03:50:32.685Z,12.23
2019-03-22T03:53:00.936Z,11.63
2019-03-22T03:55:29.266Z,12.40
2019-03-22T03:57:57.599Z,11.83
2019-03-22T04:00:25.868Z,11.97
2019-03-22T04:02:54.185Z,12.90
2019-03-22T04:05:22.533Z,14.83
2019-03-22T04:07:50.818Z,13.83
2019-03-22T04:10:19.092Z,14.40
2019-03-22T04:12:47.369Z,14.07
2019-03-22T04:15:15.646Z,14.97
2019-03-22T04:17:44.195Z,14.00
2019-03-22T04:20:12.502Z,14.50
2019-03-22T04:22:40.775Z,14.77
2019-03-22T04:25:09.079Z,15.65
2019-03-22T04:27:37.454Z,14.18
2019-03-22T04:30:05.925Z,12.73
2019-03-22T04:32:34.212Z,12.95
2019-03-22T04:35:02.493Z,13.30
2019-03-22T04:37:30.847Z,12.77
2019-03-22T04:39:59.123Z,13.65
2019-03-22T04:42:27.370Z,13.10
2019-03-22T04:44:55.575Z,12.90
2019-03-22T04:47:24.764Z,12.00
2019-03-22T04:49:53.626Z,12.63
2019-03-22T04:52:23.218Z,12.98
2019-03-22T04:54:53.152Z,11.97
2019-03-22T04:57:22.162Z,12.43
2019-03-22T04:59:50.929Z,12.10
2019-03-22T05:02:19.232Z,12.93
2019-03-22T05:04:48.611Z,11.67
2019-03-22T05:07:18.188Z,11.90
2019-03-22T05:09:46.536Z,11.90
2019-03-22T05:12:16.256Z,11.93
2019-03-22T05:14:44.992Z,12.47
2019-03-22T05:17:13.408Z,12.50
2019-03-22T05:19:43.166Z,11.77
2019-03-22T05:22:13.242Z,11.33
2019-03-22T05:24:42.565Z,11.47
2019-03-22T05:27:11.690Z,11.40
2019-03-22T05:29:41.121Z,11.83
2019-03-22T05:32:10.063Z,12.20
2019-03-22T05:34:38.292Z,11.03
2019-03-22T05:37:06.488Z,11.00
2019-03-22T05:39:34.730Z,10.97
2019-03-22T05:42:02.921Z,11.50
2019-03-22T05:44:31.216Z,11.07
2019-03-22T05:46:59.422Z,11.90
2019-03-22T05:49:27.769Z,12.23
2019-03-22T05:51:56.010Z,11.43
2019-03-22T05:54:24.302Z,13.53
2019-03-22T05:56:52.610Z,13.00
2019-03-22T05:59:20.877Z,13.53
2019-03-22T06:01:49.113Z,13.70
2019-03-22T06:04:17.415Z,14.60
2019-03-22T06:06:45.689Z,14.30
2019-03-22T06:09:13.949Z,14.43
2019-03-22T06:11:42.148Z,15.37
2019-03-22T06:14:10.403Z,15.87
2019-03-22T06:16:38.679Z,15.73
2019-03-22T06:19:06.958Z,17.70
2019-03-22T06:21:35.221Z,18.93
2019-03-22T06:24:03.532Z,19.30
2019-03-22T06:26:31.774Z,20.70
2019-03-22T06:29:00.075Z,19.83
2019-03-22T06:31:28.321Z,21.37
2019-03-22T06:33:56.654Z,20.70
2019-03-22T06:36:24.910Z,20.40
2019-03-22T06:38:53.263Z,20.30
2019-03-22T06:41:21.545Z,20.47
2019-03-22T06:43:49.832Z,20.00
2019-03-22T06:46:18.100Z,19.27
2019-03-22T06:48:46.464Z,19.67
2019-03-22T06:51:14.760Z,19.07
2019-03-22T06:53:43.032Z,17.93
2019-03-22T06:56:11.321Z,17.07
2019-03-22T06:58:39.562Z,18.00
2019-03-22T07:01:07.868Z,18.13
2019-03-22T07:03:36.218Z,18.93
2019-03-22T07:06:04.398Z,19.60
2019-03-22T07:08:33.035Z,17.83
2019-03-22T07:11:01.305Z,18.00
2019-03-22T07:13:29.552Z,17.27
2019-03-22T07:15:57.836Z,15.87
2019-03-22T07:18:26.116Z,15.73
2019-03-22T07:20:54.379Z,15.60
2019-03-22T07:23:22.654Z,15.50
2019-03-22T07:25:51.034Z,16.13
2019-03-22T07:28:19.305Z,16.27
2019-03-22T07:30:47.617Z,17.13
2019-03-22T07:33:15.957Z,16.67
2019-03-22T07:35:44.141Z,15.70
2019-03-22T07:38:12.394Z,17.17
2019-03-22T07:40:41.568Z,16.17
2019-03-22T07:43:09.881Z,16.33
2019-03-22T07:45:38.187Z,17.10
2019-03-22T07:48:06.463Z,16.60
2019-03-22T07:50:34.711Z,16.10
2019-03-22T07:53:02.920Z,15.87
2019-03-22T07:55:31.284Z,15.90
2019-03-22T07:57:59.922Z,17.10
2019-03-22T08:00:30.991Z,16.60
2019-03-22T08:02:58.055Z,16.40
2019-03-22T08:05:26.323Z,15.80
2019-03-22T08:07:56.114Z,16.47
2019-03-22T08:10:24.725Z,16.10
2019-03-22T08:12:53.029Z,16.00
2019-03-22T08:15:28.478Z,16.70
2019-03-22T08:17:57.288Z,16.80
2019-03-22T08:20:25.611Z,16.97
2019-03-22T08:22:53.907Z,17.10
2019-03-22T08:25:22.187Z,16.20
2019-03-22T08:27:50.428Z,16.87
2019-03-22T08:30:18.618Z,18.07
2019-03-22T08:32:46.910Z,16.60
2019-03-22T08:35:15.186Z,18.67
2019-03-22T08:37:52.575Z,18.43
2019-03-22T08:40:13.461Z,18.50
2019-03-22T08:42:41.750Z,18.30
2019-03-22T08:45:11.482Z,17.03
2019-03-22T08:47:39.953Z,17.83
2019-03-22T08:50:08.508Z,17.07
2019-03-22T08:52:36.804Z,17.00
2019-03-22T08:55:05.203Z,16.17
2019-03-22T08:57:33.553Z,18.60
2019-03-22T09:00:01.734Z,16.00
2019-03-22T09:02:30.000Z,16.63
2019-03-22T09:04:58.329Z,16.70
2019-03-22T09:07:26.547Z,17.17
2019-03-22T09:09:54.837Z,16.20
2019-03-22T09:12:23.224Z,17.40
2019-03-22T09:14:51.613Z,17.30
2019-03-22T09:17:20.132Z,17.03
2019-03-22T09:19:51.057Z,15.53
2019-03-22T09:22:18.267Z,16.27
2019-03-22T09:24:46.541Z,16.60
2019-03-22T09:27:14.724Z,16.10
2019-03-22T09:29:42.984Z,16.17
2019-03-22T09:32:11.248Z,15.10
2019-03-22T09:34:39.558Z,16.03
2019-03-22T09:37:09.066Z,17.30
2019-03-22T09:39:37.602Z,16.53
2019-03-22T09:42:07.201Z,16.70
2019-03-22T09:44:43.230Z,16.47
2019-03-22T09:47:08.861Z,16.93
2019-03-22T09:49:38.507Z,17.27
2019-03-22T09:52:06.801Z,16.03
2019-03-22T09:54:35.029Z,17.33
2019-03-22T09:57:03.294Z,16.17
2019-03-22T09:59:32.563Z,17.27
2019-03-22T10:02:02.505Z,15.20
2019-03-22T10:04:32.804Z,16.83
2019-03-22T10:07:02.504Z,16.17
2019-03-22T10:09:32.423Z,15.90
2019-03-22T10:12:02.142Z,17.00
2019-03-22T10:14:31.810Z,16.80
2019-03-22T10:17:01.358Z,16.93
2019-03-22T10:19:31.349Z,17.13
2019-03-22T10:22:00.984Z,16.67
2019-03-22T10:24:30.701Z,17.03
2019-03-22T10:27:00.269Z,16.40
2019-03-22T10:29:29.809Z,14.40
2019-03-22T10:31:59.714Z,16.70
2019-03-22T10:34:29.465Z,15.30
2019-03-22T10:36:59.363Z,16.30
2019-03-22T10:39:29.022Z,14.47
2019-03-22T10:41:59.559Z,15.40
2019-03-22T10:44:29.186Z,15.40
2019-03-22T10:46:58.836Z,16.63
2019-03-22T10:49:28.767Z,15.33
2019-03-22T10:51:58.463Z,14.77
2019-03-22T10:54:28.304Z,14.57
2019-03-22T10:56:57.790Z,15.80
2019-03-22T10:59:27.761Z,16.40
2019-03-22T11:02:03.651Z,16.73
2019-03-22T11:04:29.517Z,16.97
2019-03-22T11:06:59.419Z,16.40
2019-03-22T11:09:29.199Z,17.33
2019-03-22T11:11:59.369Z,16.03
2019-03-22T11:14:29.030Z,15.50
2019-03-22T11:16:58.777Z,15.43
2019-03-22T11:19:28.484Z,14.40
2019-03-22T11:21:56.736Z,14.93
2019-03-22T11:24:25.030Z,15.53
2019-03-22T11:26:53.306Z,14.13
2019-03-22T11:29:21.552Z,15.50
2019-03-22T11:31:49.809Z,15.03
2019-03-22T11:34:18.040Z,15.53
2019-03-22T11:36:46.279Z,15.33
2019-03-22T11:39:15.753Z,13.90
2019-03-22T11:41:44.440Z,15.73
2019-03-22T11:44:12.642Z,15.60
2019-03-22T11:46:40.849Z,16.10
2019-03-22T11:49:09.158Z,15.53
2019-03-22T11:51:37.499Z,14.60
2019-03-22T11:54:05.770Z,15.20
2019-03-22T11:56:34.041Z,15.90
2019-03-22T11:59:02.304Z,15.83
2019-03-22T12:01:30.592Z,15.70
2019-03-22T12:03:58.894Z,14.30
2019-03-22T12:06:27.405Z,15.07
2019-03-22T12:08:55.862Z,15.10
2019-03-22T12:11:24.226Z,16.17
2019-03-22T12:13:52.523Z,14.67
2019-03-22T12:16:20.873Z,15.33
2019-03-22T12:18:50.414Z,16.00
2019-03-22T12:21:18.955Z,14.70
2019-03-22T12:23:47.212Z,14.00
2019-03-22T12:26:15.837Z,14.60
2019-03-22T12:28:44.086Z,14.33
2019-03-22T12:31:12.353Z,13.90
2019-03-22T12:33:40.672Z,14.80
2019-03-22T12:36:09.006Z,14.83
2019-03-22T12:38:37.305Z,14.40
2019-03-22T12:41:05.584Z,14.37
2019-03-22T12:43:34.303Z,14.23
2019-03-22T12:46:02.624Z,14.30
2019-03-22T12:48:30.818Z,16.40
2019-03-22T12:50:59.127Z,14.33
2019-03-22T12:53:27.932Z,15.00
2019-03-22T12:55:56.169Z,14.03
2019-03-22T12:58:24.445Z,13.90
2019-03-22T13:00:52.697Z,15.47
2019-03-22T13:03:20.989Z,14.73
2019-03-22T13:05:49.286Z,15.00
2019-03-22T13:08:17.666Z,15.20
2019-03-22T13:10:45.922Z,14.80
2019-03-22T13:13:14.191Z,14.90
2019-03-22T13:15:42.458Z,13.17
2019-03-22T13:18:10.770Z,13.17
2019-03-22T13:20:39.137Z,14.57
2019-03-22T13:23:07.399Z,14.57
2019-03-22T13:25:35.660Z,14.13
2019-03-22T13:28:03.874Z,14.63
2019-03-22T13:30:36.009Z,13.80
2019-03-22T13:33:04.439Z,13.17
2019-03-22T13:35:32.747Z,13.73
2019-03-22T13:38:00.952Z,13.90
2019-03-22T13:40:29.229Z,13.50
2019-03-22T13:42:57.520Z,14.10
2019-03-22T13:45:25.885Z,13.70
2019-03-22T13:47:54.170Z,14.30
2019-03-22T13:50:22.693Z,13.00
2019-03-22T13:52:50.997Z,13.47
2019-03-22T13:55:19.205Z,12.37
2019-03-22T13:57:47.479Z,11.63
2019-03-22T14:00:15.865Z,13.50
2019-03-22T14:02:44.161Z,13.17
2019-03-22T14:05:12.531Z,12.90
2019-03-22T14:07:40.861Z,12.70
2019-03-22T14:10:09.176Z,13.83
2019-03-22T14:12:37.507Z,13.67
2019-03-22T14:15:05.782Z,13.20
2019-03-22T14:17:35.018Z,13.60
2019-03-22T14:20:10.784Z,12.47
2019-03-22T14:22:34.331Z,13.00
2019-03-22T14:25:02.584Z,12.70
2019-03-22T14:27:30.882Z,13.47
2019-03-22T14:29:59.416Z,12.50
2019-03-22T14:32:27.633Z,12.67
2019-03-22T14:34:55.930Z,12.97
2019-03-22T14:37:24.177Z,13.17
2019-03-22T14:39:52.476Z,13.10
2019-03-22T14:42:20.713Z,11.60
2019-03-22T14:44:49.124Z,12.33
2019-03-22T14:47:17.386Z,13.33
2019-03-22T14:49:45.660Z,12.47
2019-03-22T14:52:13.889Z,12.37
2019-03-22T14:54:42.195Z,11.30
2019-03-22T14:57:10.586Z,12.10
2019-03-22T14:59:38.909Z,11.80
2019-03-22T15:02:07.412Z,11.77
2019-03-22T15:04:35.605Z,11.10
2019-03-22T15:07:03.955Z,12.27
2019-03-22T15:09:32.280Z,11.87
2019-03-22T15:12:01.854Z,11.43
2019-03-22T15:14:46.975Z,11.47
2019-03-22T15:17:27.212Z,12.37
2019-03-22T15:20:29.941Z,11.73
2019-03-22T15:23:16.727Z,11.70
2019-03-22T15:26:03.237Z,10.87
2019-03-22T15:28:48.466Z,9.57
2019-03-22T15:31:41.816Z,10.43
2019-03-22T15:34:32.265Z,10.80
2019-03-22T15:37:38.164Z,10.10
2019-03-22T15:40:06.595Z,10.30
2019-03-22T15:42:34.848Z,9.70
2019-03-22T15:45:03.078Z,9.60
2019-03-22T15:47:31.315Z,10.10
2019-03-22T15:49:59.622Z,10.23
2019-03-22T15:52:27.908Z,11.57
2019-03-22T15:54:56.259Z,11.80
2019-03-22T15:57:24.580Z,11.27
2019-03-22T15:59:53.240Z,11.93
2019-03-22T16:02:21.476Z,11.37
2019-03-22T16:04:49.702Z,10.50
2019-03-22T16:07:18.045Z,10.87
2019-03-22T16:09:46.339Z,11.80
2019-03-22T16:12:14.567Z,12.20
2019-03-22T16:14:42.881Z,10.93
2019-03-22T16:17:11.161Z,11.43
2019-03-22T16:19:39.416Z,11.10
2019-03-22T16:22:07.635Z,10.90
2019-03-22T16:24:35.853Z,10.50
2019-03-22T16:27:04.277Z,10.87
2019-03-22T16:29:32.525Z,10.67
2019-03-22T16:32:00.796Z,10.90
2019-03-22T16:34:29.073Z,18.00
2019-03-22T16:36:57.369Z,38.00
2019-03-22T16:39:25.645Z,21.17
2019-03-22T16:41:54.927Z,13.43
2019-03-22T16:44:23.138Z,11.57
2019-03-22T16:46:51.841Z,11.90
2019-03-22T16:49:20.221Z,11.73
2019-03-22T16:51:48.475Z,12.70
2019-03-22T16:54:16.727Z,13.63
2019-03-22T16:56:44.995Z,15.10
2019-03-22T16:59:13.276Z,12.00
2019-03-22T17:01:41.450Z,10.87
2019-03-22T17:04:09.728Z,10.50
2019-03-22T17:06:38.000Z,10.80
2019-03-22T17:09:06.771Z,10.67
2019-03-22T17:11:35.090Z,10.53
2019-03-22T17:14:03.345Z,11.10
2019-03-22T17:16:31.613Z,11.70
2019-03-22T17:18:59.799Z,11.17
2019-03-22T17:21:28.237Z,11.77
2019-03-22T17:23:56.570Z,11.27
2019-03-22T17:26:24.848Z,10.93
2019-03-22T17:28:53.129Z,11.07
2019-03-22T17:31:21.702Z,11.80
2019-03-22T17:33:49.956Z,11.67
2019-03-22T17:36:18.165Z,11.40
2019-03-22T17:38:46.864Z,9.97
2019-03-22T17:41:15.193Z,10.47
2019-03-22T17:43:43.470Z,10.60
2019-03-22T17:46:12.306Z,10.40
2019-03-22T17:48:40.574Z,11.40
2019-03-22T17:51:08.840Z,10.20
2019-03-22T17:53:37.579Z,10.50
2019-03-22T17:56:06.133Z,9.47
2019-03-22T17:58:34.384Z,9.50
2019-03-22T18:01:02.798Z,10.93
2019-03-22T18:03:31.007Z,10.83
2019-03-22T18:05:59.327Z,13.20
2019-03-22T18:08:27.653Z,14.83
2019-03-22T18:10:55.995Z,11.43
2019-03-22T18:13:24.146Z,11.83
2019-03-22T18:15:52.396Z,10.93
2019-03-22T18:18:20.686Z,10.10
2019-03-22T18:20:48.934Z,10.00
2019-03-22T18:23:17.239Z,10.50
2019-03-22T18:25:45.582Z,10.27
2019-03-22T18:28:13.926Z,9.17
2019-03-22T18:30:42.269Z,9.90
2019-03-22T18:33:10.513Z,9.40
2019-03-22T18:35:38.723Z,10.20
2019-03-22T18:38:07.010Z,9.30
2019-03-22T18:40:35.314Z,10.10
2019-03-22T18:43:03.651Z,12.97
2019-03-22T18:45:31.920Z,10.43
2019-03-22T18:48:00.117Z,10.03
2019-03-22T18:50:28.380Z,9.83
2019-03-22T18:52:56.767Z,8.40
2019-03-22T18:55:25.851Z,9.30
2019-03-22T18:57:54.137Z,12.63
2019-03-22T19:00:22.418Z,12.00
2019-03-22T19:02:50.646Z,15.37
2019-03-22T19:05:18.951Z,14.47
2019-03-22T19:07:47.259Z,14.70
2019-03-22T19:10:15.770Z,23.67
2019-03-22T19:12:44.066Z,16.90
2019-03-22T19:15:12.301Z,15.03
2019-03-22T19:17:40.845Z,16.13
2019-03-22T19:20:09.864Z,14.67
2019-03-22T19:22:38.128Z,13.80
2019-03-22T19:25:07.882Z,14.10
2019-03-22T19:27:36.204Z,12.60
2019-03-22T19:30:05.027Z,12.67
2019-03-22T19:32:33.368Z,20.10
2019-03-22T19:35:01.580Z,13.77
2019-03-22T19:37:29.931Z,13.47
2019-03-22T19:39:58.207Z,13.97
2019-03-22T19:42:26.472Z,13.03
2019-03-22T19:44:54.741Z,12.23
2019-03-22T19:47:23.058Z,12.40
2019-03-22T19:49:51.411Z,9.80
2019-03-22T19:52:19.946Z,10.60
2019-03-22T19:54:48.204Z,9.80
2019-03-22T19:57:17.432Z,10.80
2019-03-22T19:59:45.732Z,10.10
2019-03-22T20:02:14.010Z,10.60
2019-03-22T20:04:42.169Z,15.50
2019-03-22T20:07:10.478Z,14.40
2019-03-22T20:09:38.729Z,17.87
2019-03-22T20:12:07.046Z,21.53
2019-03-22T20:14:35.269Z,16.73
2019-03-22T20:17:03.843Z,15.77
2019-03-22T20:19:32.132Z,18.70
2019-03-22T20:22:00.440Z,15.60
2019-03-22T20:24:28.696Z,11.37
2019-03-22T20:26:56.863Z,10.80
2019-03-22T20:29:25.156Z,10.57
2019-03-22T20:31:53.422Z,10.57
2019-03-22T20:34:21.606Z,10.60
2019-03-22T20:36:49.864Z,11.67
2019-03-22T20:39:18.065Z,11.87
2019-03-22T20:41:46.333Z,11.10
2019-03-22T20:44:14.582Z,10.83
2019-03-22T20:46:43.001Z,11.70
2019-03-22T20:49:11.261Z,10.77
2019-03-22T20:51:39.541Z,12.13
2019-03-22T20:54:07.824Z,11.73
2019-03-22T20:56:36.156Z,11.80
2019-03-22T20:59:04.359Z,11.40
2019-03-22T21:01:32.657Z,13.07
2019-03-22T21:04:00.975Z,12.50
2019-03-22T21:06:29.178Z,12.57
2019-03-22T21:08:57.506Z,13.77
2019-03-22T21:11:25.734Z,11.77
2019-03-22T21:13:54.052Z,12.67
2019-03-22T21:16:22.310Z,12.03
2019-03-22T21:18:50.600Z,10.93
2019-03-22T21:21:18.840Z,10.83
2019-03-22T21:23:47.015Z,10.40
2019-03-22T21:26:15.452Z,10.83
2019-03-22T21:28:43.770Z,11.20
2019-03-22T21:31:12.080Z,11.70
2019-03-22T21:33:40.319Z,18.23
2019-03-22T21:36:08.494Z,28.83
2019-03-22T21:38:36.798Z,16.40
2019-03-22T21:41:05.046Z,37.13
2019-03-22T21:43:33.350Z,38.70
2019-03-22T21:46:01.605Z,16.30
2019-03-22T21:48:29.799Z,12.67
2019-03-22T21:50:58.070Z,12.27
2019-03-22T21:53:26.396Z,11.93
2019-03-22T21:55:54.639Z,13.07
2019-03-22T21:58:22.903Z,13.20
2019-03-22T22:00:51.188Z,13.23
2019-03-22T22:03:19.436Z,13.00
2019-03-22T22:05:48.257Z,12.63
2019-03-22T22:08:16.632Z,14.10
2019-03-22T22:10:44.863Z,11.93
2019-03-22T22:13:13.168Z,13.10
2019-03-22T22:15:41.422Z,12.40
2019-03-22T22:18:09.720Z,11.87
2019-03-22T22:20:38.012Z,12.83
2019-03-22T22:23:06.275Z,14.43
2019-03-22T22:25:34.561Z,14.27
2019-03-22T22:28:02.821Z,13.40
2019-03-22T22:30:31.095Z,15.43
2019-03-22T22:32:59.298Z,14.90
2019-03-22T22:35:27.569Z,13.47
2019-03-22T22:37:55.947Z,14.57
2019-03-22T22:40:24.181Z,12.87
2019-03-22T22:42:52.833Z,13.20
2019-03-22T22:45:21.052Z,12.73
2019-03-22T22:47:49.230Z,11.73
2019-03-22T22:50:17.517Z,14.70
2019-03-22T22:52:45.800Z,14.30
2019-03-22T22:55:14.017Z,13.87
2019-03-22T22:57:42.331Z,13.13
2019-03-22T23:00:11.672Z,21.00
2019-03-22T23:02:39.914Z,14.70
2019-03-22T23:05:08.230Z,13.83
2019-03-22T23:07:36.490Z,12.93
2019-03-22T23:10:05.096Z,13.50
2019-03-22T23:12:33.480Z,13.87
2019-03-22T23:15:01.832Z,13.80
2019-03-22T23:17:30.099Z,12.97
2019-03-22T23:19:58.371Z,13.57
2019-03-22T23:22:26.631Z,12.30
2019-03-22T23:24:54.914Z,10.80
2019-03-22T23:27:23.185Z,10.60
2019-03-22T23:29:51.380Z,11.20
2019-03-22T23:32:19.624Z,10.10
2019-03-22T23:34:58.488Z,9.93
2019-03-22T23:37:17.730Z,11.00
2019-03-22T23:39:46.127Z,10.23
2019-03-22T23:42:14.385Z,12.10
2019-03-22T23:44:42.695Z,11.10
2019-03-22T23:47:10.941Z,11.57
2019-03-22T23:49:39.252Z,10.60
2019-03-22T23:52:07.636Z,10.87
2019-03-22T23:54:35.892Z,11.27
2019-03-22T23:57:04.174Z,12.00
2019-03-22T23:59:32.417Z,11.63
